sensor_id;sensor_type;location;lat;lon;timestamp;P1;durP1;ratioP1;P2;durP2;ratioP2
47523;SDS011;33253;42.144;25.884;2023-05-29T00:02:01;11.35;;;5.50;;
47523;SDS011;33253;42.144;25.884;2023-05-29T00:04:26;17.33;;;6.30;;
47523;SDS011;33253;42.144;25.884;2023-05-29T00:06:51;13.18;;;5.50;;
47523;SDS011;33253;42.144;25.884;2023-05-29T00:09:17;14.32;;;6.03;;
47523;SDS011;33253;42.144;25.884;2023-05-29T00:11:42;10.60;;;5.15;;
47523;SDS011;33253;42.144;25.884;2023-05-29T00:14:08;9.15;;;5.57;;
47523;SDS011;33253;42.144;25.884;2023-05-29T00:16:37;11.02;;;6.00;;
47523;SDS011;33253;42.144;25.884;2023-05-29T00:19:03;12.20;;;5.75;;
47523;SDS011;33253;42.144;25.884;2023-05-29T00:21:28;11.55;;;5.88;;
47523;SDS011;33253;42.144;25.884;2023-05-29T00:23:54;10.63;;;5.35;;
47523;SDS011;33253;42.144;25.884;2023-05-29T00:26:19;11.70;;;6.28;;
47523;SDS011;33253;42.144;25.884;2023-05-29T00:28:46;9.77;;;6.10;;
47523;SDS011;33253;42.144;25.884;2023-05-29T00:31:11;13.40;;;6.47;;
47523;SDS011;33253;42.144;25.884;2023-05-29T00:33:37;11.80;;;6.07;;
47523;SDS011;33253;42.144;25.884;2023-05-29T00:36:02;13.90;;;6.25;;
47523;SDS011;33253;42.144;25.884;2023-05-29T00:38:27;13.00;;;6.50;;
47523;SDS011;33253;42.144;25.884;2023-05-29T00:40:53;11.60;;;6.00;;
47523;SDS011;33253;42.144;25.884;2023-05-29T00:43:18;9.43;;;6.30;;
47523;SDS011;33253;42.144;25.884;2023-05-29T00:45:44;13.30;;;6.85;;
47523;SDS011;33253;42.144;25.884;2023-05-29T00:48:09;13.35;;;6.53;;
47523;SDS011;33253;42.144;25.884;2023-05-29T00:50:35;15.52;;;6.63;;
47523;SDS011;33253;42.144;25.884;2023-05-29T00:53:01;11.55;;;6.32;;
47523;SDS011;33253;42.144;25.884;2023-05-29T00:55:27;11.50;;;5.55;;
47523;SDS011;33253;42.144;25.884;2023-05-29T00:57:54;15.15;;;6.40;;
47523;SDS011;33253;42.144;25.884;2023-05-29T01:00:20;19.02;;;7.25;;
47523;SDS011;33253;42.144;25.884;2023-05-29T01:02:46;15.63;;;6.25;;
47523;SDS011;33253;42.144;25.884;2023-05-29T01:05:12;15.25;;;6.32;;
47523;SDS011;33253;42.144;25.884;2023-05-29T01:07:39;14.57;;;6.70;;
47523;SDS011;33253;42.144;25.884;2023-05-29T01:10:06;14.10;;;6.03;;
47523;SDS011;33253;42.144;25.884;2023-05-29T01:12:36;9.30;;;5.65;;
47523;SDS011;33253;42.144;25.884;2023-05-29T01:28:44;12.80;;;5.45;;
47523;SDS011;33253;42.144;25.884;2023-05-29T01:31:21;12.57;;;5.47;;
47523;SDS011;33253;42.144;25.884;2023-05-29T01:33:52;11.80;;;5.88;;
47523;SDS011;33253;42.144;25.884;2023-05-29T01:36:21;9.40;;;5.95;;
47523;SDS011;33253;42.144;25.884;2023-05-29T01:38:47;9.50;;;5.38;;
47523;SDS011;33253;42.144;25.884;2023-05-29T01:41:14;12.20;;;5.70;;
47523;SDS011;33253;42.144;25.884;2023-05-29T01:43:41;11.32;;;5.63;;
47523;SDS011;33253;42.144;25.884;2023-05-29T01:46:10;12.10;;;6.20;;
47523;SDS011;33253;42.144;25.884;2023-05-29T01:48:37;11.32;;;6.22;;
47523;SDS011;33253;42.144;25.884;2023-05-29T01:51:03;10.02;;;5.30;;
47523;SDS011;33253;42.144;25.884;2023-05-29T01:53:28;13.88;;;6.03;;
47523;SDS011;33253;42.144;25.884;2023-05-29T01:55:54;12.98;;;6.03;;
47523;SDS011;33253;42.144;25.884;2023-05-29T01:58:20;7.72;;;5.65;;
47523;SDS011;33253;42.144;25.884;2023-05-29T02:00:47;9.45;;;5.80;;
47523;SDS011;33253;42.144;25.884;2023-05-29T02:03:13;9.77;;;5.75;;
47523;SDS011;33253;42.144;25.884;2023-05-29T02:05:38;13.82;;;6.28;;
47523;SDS011;33253;42.144;25.884;2023-05-29T02:08:03;12.52;;;6.25;;
47523;SDS011;33253;42.144;25.884;2023-05-29T02:10:29;13.88;;;6.68;;
47523;SDS011;33253;42.144;25.884;2023-05-29T02:12:56;11.30;;;5.95;;
47523;SDS011;33253;42.144;25.884;2023-05-29T02:15:22;11.82;;;5.97;;
47523;SDS011;33253;42.144;25.884;2023-05-29T02:17:48;12.43;;;6.05;;
47523;SDS011;33253;42.144;25.884;2023-05-29T02:20:14;10.88;;;6.03;;
47523;SDS011;33253;42.144;25.884;2023-05-29T02:22:40;9.35;;;6.05;;
47523;SDS011;33253;42.144;25.884;2023-05-29T02:25:06;11.55;;;6.78;;
47523;SDS011;33253;42.144;25.884;2023-05-29T02:27:32;11.25;;;6.38;;
47523;SDS011;33253;42.144;25.884;2023-05-29T02:29:57;15.15;;;6.00;;
47523;SDS011;33253;42.144;25.884;2023-05-29T02:32:23;12.57;;;7.22;;
47523;SDS011;33253;42.144;25.884;2023-05-29T02:34:51;12.43;;;6.93;;
47523;SDS011;33253;42.144;25.884;2023-05-29T02:37:17;11.93;;;6.07;;
47523;SDS011;33253;42.144;25.884;2023-05-29T02:39:43;11.02;;;6.50;;
47523;SDS011;33253;42.144;25.884;2023-05-29T02:42:08;10.88;;;6.30;;
47523;SDS011;33253;42.144;25.884;2023-05-29T02:44:33;13.00;;;5.90;;
47523;SDS011;33253;42.144;25.884;2023-05-29T02:46:59;12.20;;;5.88;;
47523;SDS011;33253;42.144;25.884;2023-05-29T02:49:25;11.35;;;5.72;;
47523;SDS011;33253;42.144;25.884;2023-05-29T02:51:50;10.98;;;6.30;;
47523;SDS011;33253;42.144;25.884;2023-05-29T02:54:21;16.33;;;6.47;;
47523;SDS011;33253;42.144;25.884;2023-05-29T02:56:47;13.70;;;6.22;;
47523;SDS011;33253;42.144;25.884;2023-05-29T02:59:12;11.90;;;5.72;;
47523;SDS011;33253;42.144;25.884;2023-05-29T03:01:37;10.38;;;5.13;;
47523;SDS011;33253;42.144;25.884;2023-05-29T03:04:03;9.95;;;5.45;;
47523;SDS011;33253;42.144;25.884;2023-05-29T03:06:28;15.05;;;5.22;;
47523;SDS011;33253;42.144;25.884;2023-05-29T03:08:54;12.65;;;5.85;;
47523;SDS011;33253;42.144;25.884;2023-05-29T03:11:19;11.52;;;6.05;;
47523;SDS011;33253;42.144;25.884;2023-05-29T03:13:48;21.27;;;5.80;;
47523;SDS011;33253;42.144;25.884;2023-05-29T03:16:14;11.00;;;5.95;;
47523;SDS011;33253;42.144;25.884;2023-05-29T03:18:39;11.50;;;5.78;;
47523;SDS011;33253;42.144;25.884;2023-05-29T03:21:06;14.70;;;6.20;;
47523;SDS011;33253;42.144;25.884;2023-05-29T03:23:31;16.55;;;6.47;;
47523;SDS011;33253;42.144;25.884;2023-05-29T03:25:57;12.38;;;6.53;;
47523;SDS011;33253;42.144;25.884;2023-05-29T03:28:22;13.07;;;6.00;;
47523;SDS011;33253;42.144;25.884;2023-05-29T03:30:48;10.93;;;6.22;;
47523;SDS011;33253;42.144;25.884;2023-05-29T03:33:15;15.05;;;5.90;;
47523;SDS011;33253;42.144;25.884;2023-05-29T03:35:40;14.13;;;5.68;;
47523;SDS011;33253;42.144;25.884;2023-05-29T03:38:06;12.35;;;5.75;;
47523;SDS011;33253;42.144;25.884;2023-05-29T03:40:32;10.93;;;5.57;;
47523;SDS011;33253;42.144;25.884;2023-05-29T03:42:58;12.23;;;6.40;;
47523;SDS011;33253;42.144;25.884;2023-05-29T03:45:23;12.18;;;5.95;;
47523;SDS011;33253;42.144;25.884;2023-05-29T03:47:48;12.82;;;6.70;;
47523;SDS011;33253;42.144;25.884;2023-05-29T03:50:14;17.75;;;7.53;;
47523;SDS011;33253;42.144;25.884;2023-05-29T03:52:41;15.70;;;6.13;;
47523;SDS011;33253;42.144;25.884;2023-05-29T03:55:08;12.85;;;6.53;;
47523;SDS011;33253;42.144;25.884;2023-05-29T03:57:38;11.00;;;6.18;;
47523;SDS011;33253;42.144;25.884;2023-05-29T04:00:06;14.15;;;6.15;;
47523;SDS011;33253;42.144;25.884;2023-05-29T04:02:33;12.63;;;5.93;;
47523;SDS011;33253;42.144;25.884;2023-05-29T04:04:59;10.07;;;5.90;;
47523;SDS011;33253;42.144;25.884;2023-05-29T04:07:25;12.00;;;6.57;;
47523;SDS011;33253;42.144;25.884;2023-05-29T04:09:50;11.80;;;5.82;;
47523;SDS011;33253;42.144;25.884;2023-05-29T04:12:16;13.18;;;6.97;;
47523;SDS011;33253;42.144;25.884;2023-05-29T04:14:41;10.02;;;6.15;;
47523;SDS011;33253;42.144;25.884;2023-05-29T04:17:07;14.98;;;6.32;;
47523;SDS011;33253;42.144;25.884;2023-05-29T04:19:32;12.75;;;6.22;;
47523;SDS011;33253;42.144;25.884;2023-05-29T04:21:57;13.18;;;7.00;;
47523;SDS011;33253;42.144;25.884;2023-05-29T04:24:23;11.88;;;6.22;;
47523;SDS011;33253;42.144;25.884;2023-05-29T04:26:49;14.35;;;5.85;;
47523;SDS011;33253;42.144;25.884;2023-05-29T04:29:16;12.30;;;6.15;;
47523;SDS011;33253;42.144;25.884;2023-05-29T04:31:42;14.85;;;6.13;;
47523;SDS011;33253;42.144;25.884;2023-05-29T04:34:07;9.05;;;6.07;;
47523;SDS011;33253;42.144;25.884;2023-05-29T04:36:33;11.20;;;6.60;;
47523;SDS011;33253;42.144;25.884;2023-05-29T04:39:04;9.57;;;6.18;;
47523;SDS011;33253;42.144;25.884;2023-05-29T04:41:30;14.50;;;7.28;;
47523;SDS011;33253;42.144;25.884;2023-05-29T04:43:56;12.02;;;6.97;;
47523;SDS011;33253;42.144;25.884;2023-05-29T04:46:22;15.40;;;7.20;;
47523;SDS011;33253;42.144;25.884;2023-05-29T04:48:49;14.68;;;7.15;;
47523;SDS011;33253;42.144;25.884;2023-05-29T04:51:18;11.30;;;7.25;;
47523;SDS011;33253;42.144;25.884;2023-05-29T04:53:46;13.80;;;6.93;;
47523;SDS011;33253;42.144;25.884;2023-05-29T04:56:13;12.10;;;7.15;;
47523;SDS011;33253;42.144;25.884;2023-05-29T04:58:40;10.30;;;6.85;;
47523;SDS011;33253;42.144;25.884;2023-05-29T05:01:06;9.55;;;7.63;;
47523;SDS011;33253;42.144;25.884;2023-05-29T05:03:33;10.02;;;7.55;;
47523;SDS011;33253;42.144;25.884;2023-05-29T05:06:02;11.13;;;7.00;;
47523;SDS011;33253;42.144;25.884;2023-05-29T05:08:29;11.68;;;7.93;;
47523;SDS011;33253;42.144;25.884;2023-05-29T05:10:55;15.07;;;7.55;;
47523;SDS011;33253;42.144;25.884;2023-05-29T05:13:21;12.02;;;7.43;;
47523;SDS011;33253;42.144;25.884;2023-05-29T05:15:46;11.50;;;7.43;;
47523;SDS011;33253;42.144;25.884;2023-05-29T05:18:12;10.32;;;7.22;;
47523;SDS011;33253;42.144;25.884;2023-05-29T05:20:37;13.52;;;8.43;;
47523;SDS011;33253;42.144;25.884;2023-05-29T05:23:02;11.45;;;8.05;;
47523;SDS011;33253;42.144;25.884;2023-05-29T05:25:28;10.50;;;7.68;;
47523;SDS011;33253;42.144;25.884;2023-05-29T05:27:53;10.38;;;7.95;;
47523;SDS011;33253;42.144;25.884;2023-05-29T05:30:19;16.63;;;8.65;;
47523;SDS011;33253;42.144;25.884;2023-05-29T05:32:45;14.15;;;8.80;;
47523;SDS011;33253;42.144;25.884;2023-05-29T05:35:11;11.02;;;7.78;;
47523;SDS011;33253;42.144;25.884;2023-05-29T05:37:36;11.95;;;7.97;;
47523;SDS011;33253;42.144;25.884;2023-05-29T05:40:02;13.10;;;8.23;;
47523;SDS011;33253;42.144;25.884;2023-05-29T05:42:31;11.35;;;8.18;;
47523;SDS011;33253;42.144;25.884;2023-05-29T05:44:57;12.10;;;9.32;;
47523;SDS011;33253;42.144;25.884;2023-05-29T05:47:22;13.43;;;8.57;;
47523;SDS011;33253;42.144;25.884;2023-05-29T05:49:47;14.20;;;9.23;;
47523;SDS011;33253;42.144;25.884;2023-05-29T05:52:14;11.30;;;9.27;;
47523;SDS011;33253;42.144;25.884;2023-05-29T05:54:41;11.50;;;8.88;;
47523;SDS011;33253;42.144;25.884;2023-05-29T05:57:07;10.10;;;8.77;;
47523;SDS011;33253;42.144;25.884;2023-05-29T05:59:32;12.13;;;8.80;;
47523;SDS011;33253;42.144;25.884;2023-05-29T06:01:58;14.80;;;9.02;;
47523;SDS011;33253;42.144;25.884;2023-05-29T06:04:23;11.95;;;8.75;;
47523;SDS011;33253;42.144;25.884;2023-05-29T06:06:48;12.00;;;9.23;;
47523;SDS011;33253;42.144;25.884;2023-05-29T06:09:14;14.00;;;10.30;;
47523;SDS011;33253;42.144;25.884;2023-05-29T06:11:39;13.63;;;9.80;;
47523;SDS011;33253;42.144;25.884;2023-05-29T06:14:05;12.60;;;9.45;;
47523;SDS011;33253;42.144;25.884;2023-05-29T06:16:31;12.25;;;9.60;;
47523;SDS011;33253;42.144;25.884;2023-05-29T06:18:56;11.95;;;9.18;;
47523;SDS011;33253;42.144;25.884;2023-05-29T06:21:22;13.77;;;8.55;;
47523;SDS011;33253;42.144;25.884;2023-05-29T06:23:48;13.43;;;8.95;;
47523;SDS011;33253;42.144;25.884;2023-05-29T06:26:13;11.38;;;8.38;;
47523;SDS011;33253;42.144;25.884;2023-05-29T06:28:41;9.68;;;8.30;;
47523;SDS011;33253;42.144;25.884;2023-05-29T06:31:06;8.70;;;7.80;;
47523;SDS011;33253;42.144;25.884;2023-05-29T06:33:32;9.90;;;7.63;;
47523;SDS011;33253;42.144;25.884;2023-05-29T06:35:57;10.23;;;7.85;;
47523;SDS011;33253;42.144;25.884;2023-05-29T06:38:23;9.13;;;8.15;;
47523;SDS011;33253;42.144;25.884;2023-05-29T06:40:48;11.32;;;7.63;;
47523;SDS011;33253;42.144;25.884;2023-05-29T06:43:13;9.73;;;6.03;;
47523;SDS011;33253;42.144;25.884;2023-05-29T06:45:39;8.05;;;5.65;;
47523;SDS011;33253;42.144;25.884;2023-05-29T06:48:06;7.72;;;5.95;;
47523;SDS011;33253;42.144;25.884;2023-05-29T06:50:31;10.40;;;6.70;;
47523;SDS011;33253;42.144;25.884;2023-05-29T06:52:57;9.05;;;6.75;;
47523;SDS011;33253;42.144;25.884;2023-05-29T06:55:22;7.63;;;6.20;;
47523;SDS011;33253;42.144;25.884;2023-05-29T06:57:48;9.57;;;5.63;;
47523;SDS011;33253;42.144;25.884;2023-05-29T07:00:13;9.77;;;6.57;;
47523;SDS011;33253;42.144;25.884;2023-05-29T07:02:39;7.65;;;6.05;;
47523;SDS011;33253;42.144;25.884;2023-05-29T07:05:05;7.07;;;5.53;;
47523;SDS011;33253;42.144;25.884;2023-05-29T07:07:31;7.72;;;5.47;;
47523;SDS011;33253;42.144;25.884;2023-05-29T07:09:56;7.65;;;5.43;;
47523;SDS011;33253;42.144;25.884;2023-05-29T07:12:22;9.07;;;6.50;;
47523;SDS011;33253;42.144;25.884;2023-05-29T07:14:48;8.32;;;5.97;;
47523;SDS011;33253;42.144;25.884;2023-05-29T07:17:14;8.43;;;5.93;;
47523;SDS011;33253;42.144;25.884;2023-05-29T07:19:40;8.05;;;5.88;;
47523;SDS011;33253;42.144;25.884;2023-05-29T07:22:06;6.47;;;5.78;;
47523;SDS011;33253;42.144;25.884;2023-05-29T07:24:31;7.43;;;5.82;;
47523;SDS011;33253;42.144;25.884;2023-05-29T07:26:57;9.68;;;5.82;;
47523;SDS011;33253;42.144;25.884;2023-05-29T07:29:22;7.53;;;5.90;;
47523;SDS011;33253;42.144;25.884;2023-05-29T07:31:49;9.55;;;6.22;;
47523;SDS011;33253;42.144;25.884;2023-05-29T07:34:15;9.07;;;7.05;;
47523;SDS011;33253;42.144;25.884;2023-05-29T07:39:36;9.05;;;7.03;;
47523;SDS011;33253;42.144;25.884;2023-05-29T07:42:02;9.75;;;6.53;;
47523;SDS011;33253;42.144;25.884;2023-05-29T07:44:28;8.35;;;6.22;;
47523;SDS011;33253;42.144;25.884;2023-05-29T07:46:53;7.45;;;6.32;;
47523;SDS011;33253;42.144;25.884;2023-05-29T07:49:19;7.10;;;6.35;;
47523;SDS011;33253;42.144;25.884;2023-05-29T07:51:45;8.20;;;6.35;;
47523;SDS011;33253;42.144;25.884;2023-05-29T07:54:10;8.13;;;6.03;;
47523;SDS011;33253;42.144;25.884;2023-05-29T07:56:36;8.55;;;6.40;;
47523;SDS011;33253;42.144;25.884;2023-05-29T07:59:02;10.38;;;6.78;;
47523;SDS011;33253;42.144;25.884;2023-05-29T08:01:28;7.47;;;6.28;;
47523;SDS011;33253;42.144;25.884;2023-05-29T08:03:54;8.23;;;5.45;;
47523;SDS011;33253;42.144;25.884;2023-05-29T08:06:20;6.80;;;5.78;;
47523;SDS011;33253;42.144;25.884;2023-05-29T08:08:46;8.07;;;5.55;;
47523;SDS011;33253;42.144;25.884;2023-05-29T08:11:11;6.72;;;5.72;;
47523;SDS011;33253;42.144;25.884;2023-05-29T08:13:36;6.95;;;5.68;;
47523;SDS011;33253;42.144;25.884;2023-05-29T08:16:02;6.72;;;5.40;;
47523;SDS011;33253;42.144;25.884;2023-05-29T08:18:30;8.68;;;5.88;;
47523;SDS011;33253;42.144;25.884;2023-05-29T08:20:56;7.75;;;5.80;;
47523;SDS011;33253;42.144;25.884;2023-05-29T08:23:21;10.60;;;5.47;;
47523;SDS011;33253;42.144;25.884;2023-05-29T08:25:47;7.25;;;5.57;;
47523;SDS011;33253;42.144;25.884;2023-05-29T08:28:13;8.45;;;5.78;;
47523;SDS011;33253;42.144;25.884;2023-05-29T08:30:39;7.22;;;5.78;;
47523;SDS011;33253;42.144;25.884;2023-05-29T08:33:05;7.28;;;4.65;;
47523;SDS011;33253;42.144;25.884;2023-05-29T08:35:30;8.68;;;5.40;;
47523;SDS011;33253;42.144;25.884;2023-05-29T08:37:56;6.68;;;4.60;;
47523;SDS011;33253;42.144;25.884;2023-05-29T08:40:21;7.60;;;5.10;;
47523;SDS011;33253;42.144;25.884;2023-05-29T08:42:47;9.00;;;4.93;;
47523;SDS011;33253;42.144;25.884;2023-05-29T08:45:28;9.13;;;4.65;;
47523;SDS011;33253;42.144;25.884;2023-05-29T08:47:54;5.93;;;3.80;;
47523;SDS011;33253;42.144;25.884;2023-05-29T08:50:23;5.72;;;3.67;;
47523;SDS011;33253;42.144;25.884;2023-05-29T08:52:48;6.65;;;4.00;;
47523;SDS011;33253;42.144;25.884;2023-05-29T08:55:15;6.18;;;4.22;;
47523;SDS011;33253;42.144;25.884;2023-05-29T08:57:40;5.28;;;3.67;;
47523;SDS011;33253;42.144;25.884;2023-05-29T09:00:08;4.43;;;3.28;;
47523;SDS011;33253;42.144;25.884;2023-05-29T09:02:40;4.97;;;3.47;;
47523;SDS011;33253;42.144;25.884;2023-05-29T09:05:07;3.88;;;2.80;;
47523;SDS011;33253;42.144;25.884;2023-05-29T09:07:34;6.05;;;3.00;;
47523;SDS011;33253;42.144;25.884;2023-05-29T09:09:59;5.82;;;2.72;;
47523;SDS011;33253;42.144;25.884;2023-05-29T09:12:25;5.40;;;2.90;;
47523;SDS011;33253;42.144;25.884;2023-05-29T09:14:51;4.78;;;2.90;;
47523;SDS011;33253;42.144;25.884;2023-05-29T09:17:17;4.47;;;2.95;;
47523;SDS011;33253;42.144;25.884;2023-05-29T09:19:42;5.20;;;2.70;;
47523;SDS011;33253;42.144;25.884;2023-05-29T09:22:10;8.55;;;3.20;;
47523;SDS011;33253;42.144;25.884;2023-05-29T09:24:43;3.40;;;2.50;;
47523;SDS011;33253;42.144;25.884;2023-05-29T09:27:12;5.00;;;2.83;;
47523;SDS011;33253;42.144;25.884;2023-05-29T09:29:38;3.88;;;2.78;;
47523;SDS011;33253;42.144;25.884;2023-05-29T09:32:09;4.95;;;2.95;;
47523;SDS011;33253;42.144;25.884;2023-05-29T09:37:05;5.47;;;2.80;;
47523;SDS011;33253;42.144;25.884;2023-05-29T09:39:41;8.93;;;3.15;;
47523;SDS011;33253;42.144;25.884;2023-05-29T09:42:10;4.32;;;2.28;;
47523;SDS011;33253;42.144;25.884;2023-05-29T09:44:36;9.88;;;3.40;;
47523;SDS011;33253;42.144;25.884;2023-05-29T09:47:01;4.13;;;3.00;;
47523;SDS011;33253;42.144;25.884;2023-05-29T09:49:27;8.05;;;4.70;;
47523;SDS011;33253;42.144;25.884;2023-05-29T09:51:54;12.27;;;5.13;;
47523;SDS011;33253;42.144;25.884;2023-05-29T09:54:19;8.23;;;4.40;;
47523;SDS011;33253;42.144;25.884;2023-05-29T09:56:45;6.53;;;4.03;;
47523;SDS011;33253;42.144;25.884;2023-05-29T09:59:11;6.97;;;3.42;;
47523;SDS011;33253;42.144;25.884;2023-05-29T10:01:41;5.82;;;3.83;;
47523;SDS011;33253;42.144;25.884;2023-05-29T10:04:09;7.35;;;3.95;;
47523;SDS011;33253;42.144;25.884;2023-05-29T10:06:35;17.65;;;4.43;;
47523;SDS011;33253;42.144;25.884;2023-05-29T10:09:02;10.43;;;4.60;;
47523;SDS011;33253;42.144;25.884;2023-05-29T10:11:33;12.25;;;4.80;;
47523;SDS011;33253;42.144;25.884;2023-05-29T10:14:00;8.70;;;4.78;;
47523;SDS011;33253;42.144;25.884;2023-05-29T10:16:27;10.25;;;5.60;;
47523;SDS011;33253;42.144;25.884;2023-05-29T10:18:54;7.22;;;4.50;;
47523;SDS011;33253;42.144;25.884;2023-05-29T10:21:21;8.40;;;4.80;;
47523;SDS011;33253;42.144;25.884;2023-05-29T10:23:47;7.45;;;4.60;;
47523;SDS011;33253;42.144;25.884;2023-05-29T10:26:20;10.52;;;4.82;;
47523;SDS011;33253;42.144;25.884;2023-05-29T10:29:08;9.48;;;5.40;;
47523;SDS011;33253;42.144;25.884;2023-05-29T10:31:43;9.40;;;4.80;;
47523;SDS011;33253;42.144;25.884;2023-05-29T10:40:07;8.63;;;4.78;;
47523;SDS011;33253;42.144;25.884;2023-05-29T10:45:11;11.95;;;4.75;;
47523;SDS011;33253;42.144;25.884;2023-05-29T10:48:35;7.18;;;4.45;;
47523;SDS011;33253;42.144;25.884;2023-05-29T10:50:42;9.05;;;4.80;;
47523;SDS011;33253;42.144;25.884;2023-05-29T10:53:10;10.15;;;4.78;;
47523;SDS011;33253;42.144;25.884;2023-05-29T10:55:40;9.15;;;4.97;;
47523;SDS011;33253;42.144;25.884;2023-05-29T10:58:10;8.27;;;4.60;;
47523;SDS011;33253;42.144;25.884;2023-05-29T13:56:49;8.35;;;5.82;;
47523;SDS011;33253;42.144;25.884;2023-05-29T13:59:15;8.93;;;6.05;;
47523;SDS011;33253;42.144;25.884;2023-05-29T14:01:40;8.65;;;6.80;;
47523;SDS011;33253;42.144;25.884;2023-05-29T14:04:06;11.10;;;7.25;;
47523;SDS011;33253;42.144;25.884;2023-05-29T14:06:32;9.90;;;7.15;;
47523;SDS011;33253;42.144;25.884;2023-05-29T14:08:58;9.43;;;7.30;;
47523;SDS011;33253;42.144;25.884;2023-05-29T14:11:24;13.43;;;8.13;;
47523;SDS011;33253;42.144;25.884;2023-05-29T14:13:51;10.55;;;7.60;;
47523;SDS011;33253;42.144;25.884;2023-05-29T14:16:17;10.15;;;7.85;;
47523;SDS011;33253;42.144;25.884;2023-05-29T14:18:43;11.05;;;7.85;;
47523;SDS011;33253;42.144;25.884;2023-05-29T14:21:09;10.40;;;7.63;;
47523;SDS011;33253;42.144;25.884;2023-05-29T14:23:35;9.50;;;6.85;;
47523;SDS011;33253;42.144;25.884;2023-05-29T14:26:03;7.28;;;6.07;;
47523;SDS011;33253;42.144;25.884;2023-05-29T14:28:28;9.43;;;6.53;;
47523;SDS011;33253;42.144;25.884;2023-05-29T14:31:13;10.02;;;6.55;;
47523;SDS011;33253;42.144;25.884;2023-05-29T14:33:39;7.53;;;5.72;;
47523;SDS011;33253;42.144;25.884;2023-05-29T14:36:04;9.50;;;5.38;;
47523;SDS011;33253;42.144;25.884;2023-05-29T14:38:30;7.07;;;5.35;;
47523;SDS011;33253;42.144;25.884;2023-05-29T14:40:55;6.32;;;5.43;;
47523;SDS011;33253;42.144;25.884;2023-05-29T14:43:21;6.97;;;4.95;;
47523;SDS011;33253;42.144;25.884;2023-05-29T14:45:46;6.38;;;4.65;;
47523;SDS011;33253;42.144;25.884;2023-05-29T14:48:12;10.10;;;5.15;;
47523;SDS011;33253;42.144;25.884;2023-05-29T14:50:57;7.82;;;4.85;;
47523;SDS011;33253;42.144;25.884;2023-05-29T14:53:23;7.43;;;4.47;;
47523;SDS011;33253;42.144;25.884;2023-05-29T14:55:49;8.95;;;4.88;;
47523;SDS011;33253;42.144;25.884;2023-05-29T14:58:15;8.30;;;4.63;;
47523;SDS011;33253;42.144;25.884;2023-05-29T15:00:40;10.57;;;4.90;;
47523;SDS011;33253;42.144;25.884;2023-05-29T15:03:05;10.02;;;5.45;;
47523;SDS011;33253;42.144;25.884;2023-05-29T15:05:31;8.32;;;4.72;;
47523;SDS011;33253;42.144;25.884;2023-05-29T15:07:56;8.82;;;4.53;;
47523;SDS011;33253;42.144;25.884;2023-05-29T15:10:23;6.18;;;4.10;;
47523;SDS011;33253;42.144;25.884;2023-05-29T15:12:49;6.18;;;3.55;;
47523;SDS011;33253;42.144;25.884;2023-05-29T15:15:21;9.70;;;4.30;;
47523;SDS011;33253;42.144;25.884;2023-05-29T15:17:51;10.35;;;4.18;;
47523;SDS011;33253;42.144;25.884;2023-05-29T15:20:23;7.15;;;3.35;;
47523;SDS011;33253;42.144;25.884;2023-05-29T15:22:50;5.35;;;3.67;;
47523;SDS011;33253;42.144;25.884;2023-05-29T15:25:16;6.13;;;3.33;;
47523;SDS011;33253;42.144;25.884;2023-05-29T15:27:42;13.88;;;4.05;;
47523;SDS011;33253;42.144;25.884;2023-05-29T15:30:09;14.85;;;4.57;;
47523;SDS011;33253;42.144;25.884;2023-05-29T15:32:35;8.77;;;3.90;;
47523;SDS011;33253;42.144;25.884;2023-05-29T15:35:00;9.73;;;3.80;;
47523;SDS011;33253;42.144;25.884;2023-05-29T15:37:26;6.40;;;3.60;;
47523;SDS011;33253;42.144;25.884;2023-05-29T15:39:52;8.02;;;4.13;;
47523;SDS011;33253;42.144;25.884;2023-05-29T15:42:20;9.02;;;4.47;;
47523;SDS011;33253;42.144;25.884;2023-05-29T15:44:46;15.93;;;4.93;;
47523;SDS011;33253;42.144;25.884;2023-05-29T15:47:12;7.05;;;4.10;;
47523;SDS011;33253;42.144;25.884;2023-05-29T15:49:37;6.95;;;4.00;;
47523;SDS011;33253;42.144;25.884;2023-05-29T15:52:03;9.48;;;4.63;;
47523;SDS011;33253;42.144;25.884;2023-05-29T15:54:28;10.63;;;5.30;;
47523;SDS011;33253;42.144;25.884;2023-05-29T15:56:54;10.65;;;5.30;;
47523;SDS011;33253;42.144;25.884;2023-05-29T15:59:19;12.20;;;5.07;;
47523;SDS011;33253;42.144;25.884;2023-05-29T16:01:45;6.47;;;4.53;;
47523;SDS011;33253;42.144;25.884;2023-05-29T16:04:10;11.35;;;5.25;;
47523;SDS011;33253;42.144;25.884;2023-05-29T16:06:38;10.32;;;5.45;;
47523;SDS011;33253;42.144;25.884;2023-05-29T16:09:03;7.20;;;4.88;;
47523;SDS011;33253;42.144;25.884;2023-05-29T16:11:28;10.65;;;5.47;;
47523;SDS011;33253;42.144;25.884;2023-05-29T16:13:54;16.23;;;5.82;;
47523;SDS011;33253;42.144;25.884;2023-05-29T16:16:19;14.70;;;5.50;;
47523;SDS011;33253;42.144;25.884;2023-05-29T16:18:45;12.52;;;5.22;;
47523;SDS011;33253;42.144;25.884;2023-05-29T16:21:11;7.63;;;5.35;;
47523;SDS011;33253;42.144;25.884;2023-05-29T16:23:37;5.60;;;4.45;;
47523;SDS011;33253;42.144;25.884;2023-05-29T16:26:02;8.75;;;4.47;;
47523;SDS011;33253;42.144;25.884;2023-05-29T16:28:28;7.13;;;4.00;;
47523;SDS011;33253;42.144;25.884;2023-05-29T16:30:53;6.63;;;4.18;;
47523;SDS011;33253;42.144;25.884;2023-05-29T16:33:19;5.63;;;3.78;;
47523;SDS011;33253;42.144;25.884;2023-05-29T16:35:44;7.38;;;3.15;;
47523;SDS011;33253;42.144;25.884;2023-05-29T16:38:11;6.80;;;2.85;;
47523;SDS011;33253;42.144;25.884;2023-05-29T16:40:37;7.85;;;3.47;;
47523;SDS011;33253;42.144;25.884;2023-05-29T16:43:02;6.60;;;3.13;;
47523;SDS011;33253;42.144;25.884;2023-05-29T16:45:28;6.18;;;3.10;;
47523;SDS011;33253;42.144;25.884;2023-05-29T16:47:53;5.75;;;3.00;;
47523;SDS011;33253;42.144;25.884;2023-05-29T16:50:19;5.10;;;3.28;;
47523;SDS011;33253;42.144;25.884;2023-05-29T16:52:46;6.22;;;3.05;;
47523;SDS011;33253;42.144;25.884;2023-05-29T16:55:11;9.65;;;3.13;;
47523;SDS011;33253;42.144;25.884;2023-05-29T16:57:37;6.90;;;3.00;;
47523;SDS011;33253;42.144;25.884;2023-05-29T17:02:33;5.00;;;2.80;;
47523;SDS011;33253;42.144;25.884;2023-05-29T17:04:59;8.07;;;3.47;;
47523;SDS011;33253;42.144;25.884;2023-05-29T17:07:24;5.68;;;3.17;;
47523;SDS011;33253;42.144;25.884;2023-05-29T17:09:50;5.30;;;3.08;;
47523;SDS011;33253;42.144;25.884;2023-05-29T17:12:16;6.10;;;3.08;;
47523;SDS011;33253;42.144;25.884;2023-05-29T17:14:41;8.07;;;2.80;;
47523;SDS011;33253;42.144;25.884;2023-05-29T17:17:06;6.20;;;3.10;;
47523;SDS011;33253;42.144;25.884;2023-05-29T17:19:32;5.20;;;3.03;;
47523;SDS011;33253;42.144;25.884;2023-05-29T17:21:57;6.35;;;3.13;;
47523;SDS011;33253;42.144;25.884;2023-05-29T17:24:24;5.60;;;3.08;;
47523;SDS011;33253;42.144;25.884;2023-05-29T17:26:50;5.10;;;3.17;;
47523;SDS011;33253;42.144;25.884;2023-05-29T17:29:15;7.30;;;4.57;;
47523;SDS011;33253;42.144;25.884;2023-05-29T17:31:42;9.60;;;6.22;;
47523;SDS011;33253;42.144;25.884;2023-05-29T17:34:07;10.43;;;5.82;;
47523;SDS011;33253;42.144;25.884;2023-05-29T17:36:33;7.47;;;5.80;;
47523;SDS011;33253;42.144;25.884;2023-05-29T17:38:59;9.75;;;5.80;;
47523;SDS011;33253;42.144;25.884;2023-05-29T17:41:25;11.85;;;8.30;;
47523;SDS011;33253;42.144;25.884;2023-05-29T17:43:51;8.00;;;6.68;;
47523;SDS011;33253;42.144;25.884;2023-05-29T17:46:17;9.07;;;4.85;;
47523;SDS011;33253;42.144;25.884;2023-05-29T17:48:44;7.40;;;4.60;;
47523;SDS011;33253;42.144;25.884;2023-05-29T17:51:11;9.30;;;4.15;;